sensor_id;sensor_type;location;lat;lon;timestamp;P1;durP1;ratioP1;P2;durP2;ratioP2
16320;SDS011;8269;50.990;4.494;2023-03-03T00:01:28;29.70;;;16.40;;
16320;SDS011;8269;50.990;4.494;2023-03-03T00:03:56;30.50;;;17.40;;
16320;SDS011;8269;50.990;4.494;2023-03-03T00:06:22;28.57;;;16.87;;
16320;SDS011;8269;50.990;4.494;2023-03-03T00:08:49;29.30;;;16.03;;
16320;SDS011;8269;50.990;4.494;2023-03-03T00:11:15;28.43;;;16.93;;
16320;SDS011;8269;50.990;4.494;2023-03-03T00:13:51;27.57;;;17.03;;
16320;SDS011;8269;50.990;4.494;2023-03-03T00:16:24;32.50;;;17.00;;
16320;SDS011;8269;50.990;4.494;2023-03-03T00:18:51;28.80;;;16.30;;
16320;SDS011;8269;50.990;4.494;2023-03-03T00:23:50;30.30;;;16.77;;
16320;SDS011;8269;50.990;4.494;2023-03-03T00:26:20;29.60;;;16.20;;
16320;SDS011;8269;50.990;4.494;2023-03-03T00:28:48;31.20;;;17.17;;
16320;SDS011;8269;50.990;4.494;2023-03-03T00:34:27;29.10;;;17.77;;
16320;SDS011;8269;50.990;4.494;2023-03-03T00:39:10;32.93;;;18.30;;
16320;SDS011;8269;50.990;4.494;2023-03-03T00:41:39;31.77;;;17.87;;
16320;SDS011;8269;50.990;4.494;2023-03-03T00:46:46;34.13;;;18.57;;
16320;SDS011;8269;50.990;4.494;2023-03-03T00:49:16;31.53;;;18.63;;
16320;SDS011;8269;50.990;4.494;2023-03-03T00:51:45;29.83;;;17.60;;
16320;SDS011;8269;50.990;4.494;2023-03-03T00:54:11;32.53;;;18.70;;
16320;SDS011;8269;50.990;4.494;2023-03-03T00:56:37;32.00;;;18.37;;
16320;SDS011;8269;50.990;4.494;2023-03-03T00:59:03;36.73;;;19.47;;
16320;SDS011;8269;50.990;4.494;2023-03-03T01:01:29;33.50;;;19.83;;
16320;SDS011;8269;50.990;4.494;2023-03-03T01:03:55;36.13;;;20.10;;
16320;SDS011;8269;50.990;4.494;2023-03-03T01:06:21;36.00;;;19.17;;
16320;SDS011;8269;50.990;4.494;2023-03-03T01:08:47;31.77;;;19.07;;
16320;SDS011;8269;50.990;4.494;2023-03-03T01:11:14;33.90;;;18.63;;
16320;SDS011;8269;50.990;4.494;2023-03-03T01:13:42;34.47;;;19.57;;
16320;SDS011;8269;50.990;4.494;2023-03-03T01:16:09;36.83;;;20.73;;
16320;SDS011;8269;50.990;4.494;2023-03-03T01:18:35;39.03;;;20.27;;
16320;SDS011;8269;50.990;4.494;2023-03-03T01:21:01;37.83;;;22.17;;
16320;SDS011;8269;50.990;4.494;2023-03-03T01:23:28;39.10;;;21.43;;
16320;SDS011;8269;50.990;4.494;2023-03-03T01:25:54;36.43;;;20.60;;
16320;SDS011;8269;50.990;4.494;2023-03-03T01:28:20;35.60;;;21.50;;
16320;SDS011;8269;50.990;4.494;2023-03-03T01:30:46;37.33;;;20.97;;
16320;SDS011;8269;50.990;4.494;2023-03-03T01:33:12;34.20;;;20.00;;
16320;SDS011;8269;50.990;4.494;2023-03-03T01:35:42;38.00;;;20.33;;
16320;SDS011;8269;50.990;4.494;2023-03-03T01:38:09;39.53;;;21.87;;
16320;SDS011;8269;50.990;4.494;2023-03-03T01:40:36;40.73;;;22.13;;
16320;SDS011;8269;50.990;4.494;2023-03-03T01:43:02;43.93;;;22.53;;
16320;SDS011;8269;50.990;4.494;2023-03-03T01:46:30;41.93;;;21.67;;
16320;SDS011;8269;50.990;4.494;2023-03-03T01:48:39;36.93;;;20.17;;
16320;SDS011;8269;50.990;4.494;2023-03-03T01:51:14;39.13;;;21.40;;
16320;SDS011;8269;50.990;4.494;2023-03-03T01:53:43;40.20;;;22.17;;
16320;SDS011;8269;50.990;4.494;2023-03-03T01:56:10;42.00;;;22.07;;
16320;SDS011;8269;50.990;4.494;2023-03-03T01:58:39;46.10;;;23.80;;
16320;SDS011;8269;50.990;4.494;2023-03-03T02:01:08;44.67;;;24.00;;
16320;SDS011;8269;50.990;4.494;2023-03-03T02:03:35;43.63;;;22.57;;
16320;SDS011;8269;50.990;4.494;2023-03-03T02:06:07;42.07;;;22.90;;
16320;SDS011;8269;50.990;4.494;2023-03-03T02:08:36;44.63;;;22.90;;
16320;SDS011;8269;50.990;4.494;2023-03-03T02:11:03;42.13;;;23.40;;
16320;SDS011;8269;50.990;4.494;2023-03-03T02:13:30;44.93;;;23.17;;
16320;SDS011;8269;50.990;4.494;2023-03-03T02:15:56;42.20;;;22.50;;
16320;SDS011;8269;50.990;4.494;2023-03-03T02:18:23;45.97;;;24.60;;
16320;SDS011;8269;50.990;4.494;2023-03-03T02:23:37;44.70;;;23.90;;
16320;SDS011;8269;50.990;4.494;2023-03-03T02:28:34;47.43;;;23.27;;
16320;SDS011;8269;50.990;4.494;2023-03-03T02:31:01;43.67;;;24.23;;
16320;SDS011;8269;50.990;4.494;2023-03-03T02:33:27;47.33;;;24.63;;
16320;SDS011;8269;50.990;4.494;2023-03-03T02:35:53;48.53;;;23.77;;
16320;SDS011;8269;50.990;4.494;2023-03-03T02:38:27;47.57;;;25.00;;
16320;SDS011;8269;50.990;4.494;2023-03-03T02:43:20;47.53;;;24.97;;
16320;SDS011;8269;50.990;4.494;2023-03-03T02:45:48;49.70;;;25.63;;
16320;SDS011;8269;50.990;4.494;2023-03-03T02:48:14;48.23;;;25.17;;
16320;SDS011;8269;50.990;4.494;2023-03-03T02:50:40;48.83;;;25.73;;
16320;SDS011;8269;50.990;4.494;2023-03-03T02:53:06;55.33;;;25.97;;
16320;SDS011;8269;50.990;4.494;2023-03-03T02:55:32;50.30;;;26.07;;
16320;SDS011;8269;50.990;4.494;2023-03-03T02:57:58;49.40;;;24.57;;
16320;SDS011;8269;50.990;4.494;2023-03-03T03:00:24;49.60;;;26.33;;
16320;SDS011;8269;50.990;4.494;2023-03-03T03:02:50;47.00;;;23.53;;
16320;SDS011;8269;50.990;4.494;2023-03-03T03:05:16;56.00;;;27.20;;
16320;SDS011;8269;50.990;4.494;2023-03-03T03:07:42;53.20;;;26.37;;
16320;SDS011;8269;50.990;4.494;2023-03-03T03:10:08;52.00;;;26.27;;
16320;SDS011;8269;50.990;4.494;2023-03-03T03:12:35;56.00;;;26.83;;
16320;SDS011;8269;50.990;4.494;2023-03-03T03:15:01;51.33;;;25.20;;
16320;SDS011;8269;50.990;4.494;2023-03-03T03:17:27;50.20;;;25.23;;
16320;SDS011;8269;50.990;4.494;2023-03-03T03:19:53;54.57;;;26.37;;
16320;SDS011;8269;50.990;4.494;2023-03-03T03:22:19;50.20;;;23.97;;
16320;SDS011;8269;50.990;4.494;2023-03-03T03:24:45;54.53;;;25.53;;
16320;SDS011;8269;50.990;4.494;2023-03-03T03:27:11;51.33;;;25.20;;
16320;SDS011;8269;50.990;4.494;2023-03-03T03:29:37;55.57;;;27.17;;
16320;SDS011;8269;50.990;4.494;2023-03-03T03:32:03;47.93;;;22.70;;
16320;SDS011;8269;50.990;4.494;2023-03-03T03:34:29;56.10;;;26.93;;
16320;SDS011;8269;50.990;4.494;2023-03-03T03:36:56;51.40;;;25.40;;
16320;SDS011;8269;50.990;4.494;2023-03-03T03:39:22;53.90;;;25.20;;
16320;SDS011;8269;50.990;4.494;2023-03-03T03:41:48;51.23;;;25.23;;
16320;SDS011;8269;50.990;4.494;2023-03-03T03:44:14;50.43;;;24.80;;
16320;SDS011;8269;50.990;4.494;2023-03-03T03:46:40;54.20;;;24.40;;
16320;SDS011;8269;50.990;4.494;2023-03-03T03:49:06;53.30;;;25.03;;
16320;SDS011;8269;50.990;4.494;2023-03-03T03:51:32;53.23;;;25.57;;
16320;SDS011;8269;50.990;4.494;2023-03-03T03:53:59;54.67;;;24.90;;
16320;SDS011;8269;50.990;4.494;2023-03-03T03:56:25;50.10;;;22.80;;
16320;SDS011;8269;50.990;4.494;2023-03-03T03:58:51;51.90;;;24.80;;
16320;SDS011;8269;50.990;4.494;2023-03-03T04:01:17;55.77;;;25.57;;
16320;SDS011;8269;50.990;4.494;2023-03-03T04:03:44;54.37;;;25.53;;
16320;SDS011;8269;50.990;4.494;2023-03-03T04:06:10;55.03;;;26.13;;
16320;SDS011;8269;50.990;4.494;2023-03-03T04:08:36;51.37;;;24.63;;
16320;SDS011;8269;50.990;4.494;2023-03-03T04:11:02;53.67;;;24.30;;
16320;SDS011;8269;50.990;4.494;2023-03-03T04:13:28;54.57;;;25.87;;
16320;SDS011;8269;50.990;4.494;2023-03-03T04:15:55;55.57;;;25.90;;
16320;SDS011;8269;50.990;4.494;2023-03-03T04:18:22;54.67;;;25.70;;
16320;SDS011;8269;50.990;4.494;2023-03-03T04:20:48;53.70;;;24.27;;
16320;SDS011;8269;50.990;4.494;2023-03-03T04:23:16;52.63;;;24.13;;
16320;SDS011;8269;50.990;4.494;2023-03-03T04:25:44;52.07;;;24.37;;
16320;SDS011;8269;50.990;4.494;2023-03-03T04:28:11;58.90;;;27.23;;
16320;SDS011;8269;50.990;4.494;2023-03-03T04:30:37;58.43;;;26.57;;
16320;SDS011;8269;50.990;4.494;2023-03-03T04:33:03;59.43;;;26.43;;
16320;SDS011;8269;50.990;4.494;2023-03-03T04:35:29;64.37;;;28.60;;
16320;SDS011;8269;50.990;4.494;2023-03-03T04:37:55;55.47;;;27.60;;
16320;SDS011;8269;50.990;4.494;2023-03-03T04:40:21;51.93;;;24.73;;
16320;SDS011;8269;50.990;4.494;2023-03-03T04:42:47;64.73;;;28.63;;
16320;SDS011;8269;50.990;4.494;2023-03-03T04:45:13;63.37;;;29.07;;
16320;SDS011;8269;50.990;4.494;2023-03-03T04:47:39;56.40;;;26.00;;
16320;SDS011;8269;50.990;4.494;2023-03-03T04:50:05;60.47;;;27.70;;
16320;SDS011;8269;50.990;4.494;2023-03-03T04:52:32;58.17;;;27.93;;
16320;SDS011;8269;50.990;4.494;2023-03-03T04:54:58;60.60;;;27.47;;
16320;SDS011;8269;50.990;4.494;2023-03-03T04:57:24;66.07;;;28.03;;
16320;SDS011;8269;50.990;4.494;2023-03-03T04:59:50;56.83;;;26.20;;
16320;SDS011;8269;50.990;4.494;2023-03-03T05:02:16;56.10;;;26.23;;
16320;SDS011;8269;50.990;4.494;2023-03-03T05:04:42;53.67;;;24.70;;
16320;SDS011;8269;50.990;4.494;2023-03-03T05:07:09;50.63;;;25.03;;
16320;SDS011;8269;50.990;4.494;2023-03-03T05:09:35;50.60;;;23.87;;
16320;SDS011;8269;50.990;4.494;2023-03-03T05:12:02;54.63;;;25.87;;
16320;SDS011;8269;50.990;4.494;2023-03-03T05:14:28;54.20;;;24.77;;
16320;SDS011;8269;50.990;4.494;2023-03-03T05:16:55;48.47;;;24.30;;
16320;SDS011;8269;50.990;4.494;2023-03-03T05:19:21;50.10;;;25.80;;
16320;SDS011;8269;50.990;4.494;2023-03-03T05:21:48;45.03;;;24.63;;
16320;SDS011;8269;50.990;4.494;2023-03-03T05:24:14;45.70;;;23.33;;
16320;SDS011;8269;50.990;4.494;2023-03-03T05:26:40;45.77;;;23.37;;
16320;SDS011;8269;50.990;4.494;2023-03-03T05:29:07;46.07;;;24.73;;
16320;SDS011;8269;50.990;4.494;2023-03-03T05:31:33;44.87;;;22.80;;
16320;SDS011;8269;50.990;4.494;2023-03-03T05:33:59;43.90;;;21.60;;
16320;SDS011;8269;50.990;4.494;2023-03-03T05:36:26;39.83;;;21.67;;
16320;SDS011;8269;50.990;4.494;2023-03-03T05:38:52;45.70;;;23.10;;
16320;SDS011;8269;50.990;4.494;2023-03-03T05:41:18;41.53;;;22.17;;
16320;SDS011;8269;50.990;4.494;2023-03-03T05:43:44;38.80;;;19.53;;
16320;SDS011;8269;50.990;4.494;2023-03-03T05:46:10;40.00;;;21.30;;
16320;SDS011;8269;50.990;4.494;2023-03-03T05:48:36;40.60;;;20.30;;
16320;SDS011;8269;50.990;4.494;2023-03-03T05:51:02;37.33;;;20.67;;
16320;SDS011;8269;50.990;4.494;2023-03-03T05:53:29;37.53;;;19.40;;
16320;SDS011;8269;50.990;4.494;2023-03-03T05:55:55;43.00;;;20.53;;
16320;SDS011;8269;50.990;4.494;2023-03-03T05:58:21;40.93;;;21.97;;
16320;SDS011;8269;50.990;4.494;2023-03-03T06:00:47;39.83;;;20.83;;
16320;SDS011;8269;50.990;4.494;2023-03-03T06:03:13;38.13;;;19.20;;
16320;SDS011;8269;50.990;4.494;2023-03-03T06:05:41;40.80;;;19.57;;
16320;SDS011;8269;50.990;4.494;2023-03-03T06:08:07;40.80;;;20.03;;
16320;SDS011;8269;50.990;4.494;2023-03-03T06:10:34;46.03;;;22.40;;
16320;SDS011;8269;50.990;4.494;2023-03-03T06:13:00;42.40;;;20.50;;
16320;SDS011;8269;50.990;4.494;2023-03-03T06:15:26;43.27;;;22.10;;
16320;SDS011;8269;50.990;4.494;2023-03-03T06:17:52;40.30;;;23.03;;
16320;SDS011;8269;50.990;4.494;2023-03-03T06:20:18;42.80;;;22.50;;
16320;SDS011;8269;50.990;4.494;2023-03-03T06:22:44;42.70;;;22.50;;
16320;SDS011;8269;50.990;4.494;2023-03-03T06:25:10;36.43;;;19.27;;
16320;SDS011;8269;50.990;4.494;2023-03-03T06:27:36;38.70;;;18.77;;
16320;SDS011;8269;50.990;4.494;2023-03-03T06:30:02;32.87;;;19.03;;
16320;SDS011;8269;50.990;4.494;2023-03-03T06:32:29;35.57;;;19.83;;
16320;SDS011;8269;50.990;4.494;2023-03-03T06:34:55;37.37;;;19.87;;
16320;SDS011;8269;50.990;4.494;2023-03-03T06:37:21;35.67;;;19.33;;
16320;SDS011;8269;50.990;4.494;2023-03-03T06:39:47;37.07;;;19.20;;
16320;SDS011;8269;50.990;4.494;2023-03-03T06:42:13;36.77;;;19.30;;
16320;SDS011;8269;50.990;4.494;2023-03-03T06:44:39;34.60;;;19.23;;
16320;SDS011;8269;50.990;4.494;2023-03-03T06:47:05;34.77;;;18.93;;
16320;SDS011;8269;50.990;4.494;2023-03-03T06:49:31;34.53;;;18.60;;
16320;SDS011;8269;50.990;4.494;2023-03-03T06:51:58;34.33;;;18.63;;
16320;SDS011;8269;50.990;4.494;2023-03-03T06:54:26;37.27;;;19.00;;
16320;SDS011;8269;50.990;4.494;2023-03-03T06:56:53;34.63;;;17.83;;
16320;SDS011;8269;50.990;4.494;2023-03-03T06:59:21;37.50;;;19.33;;
16320;SDS011;8269;50.990;4.494;2023-03-03T07:01:47;35.40;;;18.13;;
16320;SDS011;8269;50.990;4.494;2023-03-03T07:06:40;38.03;;;20.20;;
16320;SDS011;8269;50.990;4.494;2023-03-03T07:09:14;38.57;;;19.70;;
16320;SDS011;8269;50.990;4.494;2023-03-03T07:11:44;38.43;;;18.87;;
16320;SDS011;8269;50.990;4.494;2023-03-03T07:14:13;35.33;;;15.97;;
16320;SDS011;8269;50.990;4.494;2023-03-03T07:16:41;38.80;;;19.70;;
16320;SDS011;8269;50.990;4.494;2023-03-03T07:19:13;36.20;;;19.07;;
16320;SDS011;8269;50.990;4.494;2023-03-03T07:21:41;36.33;;;18.73;;
16320;SDS011;8269;50.990;4.494;2023-03-03T07:29:32;37.30;;;19.47;;
16320;SDS011;8269;50.990;4.494;2023-03-03T07:32:00;32.87;;;17.70;;
16320;SDS011;8269;50.990;4.494;2023-03-03T07:34:37;39.27;;;19.10;;
16320;SDS011;8269;50.990;4.494;2023-03-03T07:37:13;37.03;;;19.13;;
16320;SDS011;8269;50.990;4.494;2023-03-03T07:39:42;37.53;;;19.40;;
16320;SDS011;8269;50.990;4.494;2023-03-03T07:42:17;36.83;;;21.73;;
16320;SDS011;8269;50.990;4.494;2023-03-03T07:44:45;37.17;;;20.07;;
16320;SDS011;8269;50.990;4.494;2023-03-03T07:47:25;34.87;;;19.37;;
16320;SDS011;8269;50.990;4.494;2023-03-03T07:55:17;34.00;;;17.60;;
16320;SDS011;8269;50.990;4.494;2023-03-03T07:57:45;33.40;;;17.37;;
16320;SDS011;8269;50.990;4.494;2023-03-03T08:05:56;27.53;;;15.37;;
16320;SDS011;8269;50.990;4.494;2023-03-03T08:10:49;35.33;;;18.13;;
16320;SDS011;8269;50.990;4.494;2023-03-03T08:13:19;35.37;;;18.40;;
16320;SDS011;8269;50.990;4.494;2023-03-03T08:15:46;33.17;;;16.60;;
16320;SDS011;8269;50.990;4.494;2023-03-03T08:18:18;29.70;;;16.10;;
16320;SDS011;8269;50.990;4.494;2023-03-03T08:20:49;31.17;;;15.83;;
16320;SDS011;8269;50.990;4.494;2023-03-03T08:23:16;30.50;;;15.83;;
16320;SDS011;8269;50.990;4.494;2023-03-03T08:25:42;28.77;;;14.90;;
16320;SDS011;8269;50.990;4.494;2023-03-03T08:28:09;30.33;;;14.53;;
16320;SDS011;8269;50.990;4.494;2023-03-03T08:30:36;29.00;;;15.33;;
16320;SDS011;8269;50.990;4.494;2023-03-03T08:33:02;25.97;;;13.30;;
16320;SDS011;8269;50.990;4.494;2023-03-03T08:35:29;28.03;;;14.03;;
16320;SDS011;8269;50.990;4.494;2023-03-03T08:37:55;28.27;;;14.60;;
16320;SDS011;8269;50.990;4.494;2023-03-03T08:40:21;27.83;;;14.77;;
16320;SDS011;8269;50.990;4.494;2023-03-03T08:42:47;24.53;;;12.17;;
16320;SDS011;8269;50.990;4.494;2023-03-03T08:45:13;27.73;;;14.67;;
16320;SDS011;8269;50.990;4.494;2023-03-03T08:47:39;26.83;;;13.97;;
16320;SDS011;8269;50.990;4.494;2023-03-03T08:50:07;31.07;;;14.53;;
16320;SDS011;8269;50.990;4.494;2023-03-03T08:52:33;28.97;;;14.33;;
16320;SDS011;8269;50.990;4.494;2023-03-03T08:55:00;27.13;;;13.17;;
16320;SDS011;8269;50.990;4.494;2023-03-03T08:57:26;27.03;;;14.07;;
16320;SDS011;8269;50.990;4.494;2023-03-03T08:59:52;27.30;;;13.53;;
16320;SDS011;8269;50.990;4.494;2023-03-03T09:02:18;27.07;;;13.47;;
16320;SDS011;8269;50.990;4.494;2023-03-03T09:04:44;29.20;;;14.13;;
16320;SDS011;8269;50.990;4.494;2023-03-03T09:07:10;30.40;;;14.43;;
16320;SDS011;8269;50.990;4.494;2023-03-03T09:09:36;26.70;;;14.17;;
16320;SDS011;8269;50.990;4.494;2023-03-03T09:12:12;26.87;;;13.50;;
16320;SDS011;8269;50.990;4.494;2023-03-03T09:14:39;29.77;;;14.60;;
16320;SDS011;8269;50.990;4.494;2023-03-03T09:17:16;31.77;;;14.73;;
16320;SDS011;8269;50.990;4.494;2023-03-03T09:19:44;28.57;;;13.83;;
16320;SDS011;8269;50.990;4.494;2023-03-03T09:22:23;30.17;;;14.53;;
16320;SDS011;8269;50.990;4.494;2023-03-03T09:24:51;31.60;;;15.23;;
16320;SDS011;8269;50.990;4.494;2023-03-03T09:27:21;30.83;;;15.23;;
16320;SDS011;8269;50.990;4.494;2023-03-03T09:29:50;28.97;;;14.30;;
16320;SDS011;8269;50.990;4.494;2023-03-03T09:32:36;26.13;;;12.97;;
16320;SDS011;8269;50.990;4.494;2023-03-03T09:38:25;27.57;;;13.37;;
16320;SDS011;8269;50.990;4.494;2023-03-03T09:46:09;25.73;;;13.60;;
16320;SDS011;8269;50.990;4.494;2023-03-03T09:51:10;29.70;;;14.13;;
16320;SDS011;8269;50.990;4.494;2023-03-03T09:58:46;24.67;;;13.23;;
16320;SDS011;8269;50.990;4.494;2023-03-03T10:01:33;24.37;;;13.37;;
16320;SDS011;8269;50.990;4.494;2023-03-03T10:14:21;26.83;;;13.13;;
16320;SDS011;8269;50.990;4.494;2023-03-03T10:19:54;23.63;;;12.87;;
16320;SDS011;8269;50.990;4.494;2023-03-03T10:30:33;25.43;;;13.17;;
16320;SDS011;8269;50.990;4.494;2023-03-03T10:33:04;24.47;;;12.13;;
16320;SDS011;8269;50.990;4.494;2023-03-03T10:35:38;24.37;;;13.17;;
16320;SDS011;8269;50.990;4.494;2023-03-03T10:40:59;26.60;;;13.53;;
16320;SDS011;8269;50.990;4.494;2023-03-03T10:43:54;26.20;;;13.93;;
16320;SDS011;8269;50.990;4.494;2023-03-03T10:49:04;27.00;;;13.07;;
16320;SDS011;8269;50.990;4.494;2023-03-03T11:00:02;26.60;;;13.57;;
16320;SDS011;8269;50.990;4.494;2023-03-03T11:05:07;22.67;;;12.43;;
16320;SDS011;8269;50.990;4.494;2023-03-03T11:07:39;25.37;;;13.00;;
16320;SDS011;8269;50.990;4.494;2023-03-03T11:15:31;21.27;;;12.10;;
16320;SDS011;8269;50.990;4.494;2023-03-03T11:20:50;22.53;;;11.30;;
16320;SDS011;8269;50.990;4.494;2023-03-03T11:23:28;24.83;;;12.07;;
16320;SDS011;8269;50.990;4.494;2023-03-03T11:26:07;25.57;;;12.10;;
16320;SDS011;8269;50.990;4.494;2023-03-03T11:28:43;22.50;;;12.97;;
16320;SDS011;8269;50.990;4.494;2023-03-03T11:33:46;22.23;;;11.13;;
16320;SDS011;8269;50.990;4.494;2023-03-03T11:36:36;19.93;;;10.40;;
16320;SDS011;8269;50.990;4.494;2023-03-03T11:39:04;20.03;;;10.53;;
16320;SDS011;8269;50.990;4.494;2023-03-03T11:46:37;22.13;;;12.77;;
16320;SDS011;8269;50.990;4.494;2023-03-03T11:49:11;20.17;;;11.10;;
16320;SDS011;8269;50.990;4.494;2023-03-03T11:56:54;24.20;;;11.33;;
16320;SDS011;8269;50.990;4.494;2023-03-03T12:04:40;24.07;;;12.97;;
16320;SDS011;8269;50.990;4.494;2023-03-03T12:07:12;22.43;;;12.73;;
16320;SDS011;8269;50.990;4.494;2023-03-03T12:14:47;21.40;;;11.60;;
16320;SDS011;8269;50.990;4.494;2023-03-03T12:35:13;19.37;;;10.90;;
16320;SDS011;8269;50.990;4.494;2023-03-03T12:40:18;18.33;;;10.97;;
16320;SDS011;8269;50.990;4.494;2023-03-03T12:45:17;19.00;;;11.13;;
16320;SDS011;8269;50.990;4.494;2023-03-03T12:47:50;18.97;;;10.63;;
16320;SDS011;8269;50.990;4.494;2023-03-03T12:50:21;19.00;;;10.27;;
16320;SDS011;8269;50.990;4.494;2023-03-03T12:57:57;19.87;;;11.30;;
16320;SDS011;8269;50.990;4.494;2023-03-03T13:03:32;21.40;;;11.33;;
16320;SDS011;8269;50.990;4.494;2023-03-03T13:06:06;22.43;;;11.70;;
16320;SDS011;8269;50.990;4.494;2023-03-03T13:11:19;21.13;;;12.27;;
16320;SDS011;8269;50.990;4.494;2023-03-03T13:16:38;20.23;;;10.57;;
16320;SDS011;8269;50.990;4.494;2023-03-03T13:19:10;20.30;;;10.83;;
16320;SDS011;8269;50.990;4.494;2023-03-03T13:24:24;22.03;;;11.40;;
16320;SDS011;8269;50.990;4.494;2023-03-03T13:33:09;18.00;;;10.13;;
16320;SDS011;8269;50.990;4.494;2023-03-03T13:37:58;18.00;;;9.77;;
16320;SDS011;8269;50.990;4.494;2023-03-03T13:43:09;17.57;;;9.97;;
16320;SDS011;8269;50.990;4.494;2023-03-03T13:53:06;20.50;;;10.37;;
16320;SDS011;8269;50.990;4.494;2023-03-03T13:55:36;17.77;;;10.40;;
16320;SDS011;8269;50.990;4.494;2023-03-03T14:08:35;17.57;;;9.57;;
16320;SDS011;8269;50.990;4.494;2023-03-03T14:11:10;14.20;;;9.07;;
16320;SDS011;8269;50.990;4.494;2023-03-03T14:13:40;17.60;;;8.47;;
16320;SDS011;8269;50.990;4.494;2023-03-03T14:21:08;17.93;;;9.03;;
16320;SDS011;8269;50.990;4.494;2023-03-03T14:26:15;17.13;;;8.30;;
16320;SDS011;8269;50.990;4.494;2023-03-03T14:28:42;12.40;;;8.07;;
16320;SDS011;8269;50.990;4.494;2023-03-03T14:31:20;12.27;;;7.83;;
16320;SDS011;8269;50.990;4.494;2023-03-03T14:36:41;13.33;;;8.47;;
16320;SDS011;8269;50.990;4.494;2023-03-03T14:39:29;14.27;;;8.60;;
16320;SDS011;8269;50.990;4.494;2023-03-03T14:41:56;14.33;;;8.33;;
16320;SDS011;8269;50.990;4.494;2023-03-03T14:44:24;13.33;;;8.30;;
16320;SDS011;8269;50.990;4.494;2023-03-03T14:49:39;13.03;;;8.00;;
16320;SDS011;8269;50.990;4.494;2023-03-03T14:54:36;13.23;;;7.93;;
16320;SDS011;8269;50.990;4.494;2023-03-03T14:59:35;12.07;;;7.67;;
16320;SDS011;8269;50.990;4.494;2023-03-03T15:04:43;14.90;;;7.90;;
16320;SDS011;8269;50.990;4.494;2023-03-03T15:10:09;10.97;;;7.40;;
16320;SDS011;8269;50.990;4.494;2023-03-03T15:12:38;11.23;;;6.73;;
16320;SDS011;8269;50.990;4.494;2023-03-03T15:17:42;11.00;;;7.33;;
16320;SDS011;8269;50.990;4.494;2023-03-03T15:23:06;11.07;;;6.80;;
16320;SDS011;8269;50.990;4.494;2023-03-03T15:34:20;9.10;;;6.30;;
16320;SDS011;8269;50.990;4.494;2023-03-03T15:36:51;10.03;;;6.53;;
16320;SDS011;8269;50.990;4.494;2023-03-03T15:40:02;10.63;;;6.70;;
16320;SDS011;8269;50.990;4.494;2023-03-03T15:42:20;13.70;;;6.80;;
16320;SDS011;8269;50.990;4.494;2023-03-03T15:50:44;11.40;;;6.50;;
16320;SDS011;8269;50.990;4.494;2023-03-03T15:56:06;9.63;;;6.43;;
16320;SDS011;8269;50.990;4.494;2023-03-03T16:01:04;9.63;;;6.90;;
16320;SDS011;8269;50.990;4.494;2023-03-03T16:03:35;10.57;;;6.77;;
16320;SDS011;8269;50.990;4.494;2023-03-03T16:08:40;10.77;;;6.97;;
16320;SDS011;8269;50.990;4.494;2023-03-03T16:11:25;11.53;;;6.70;;
16320;SDS011;8269;50.990;4.494;2023-03-03T16:19:19;9.50;;;6.60;;
16320;SDS011;8269;50.990;4.494;2023-03-03T16:29:44;8.27;;;6.00;;
16320;SDS011;8269;50.990;4.494;2023-03-03T16:32:16;10.33;;;6.93;;
16320;SDS011;8269;50.990;4.494;2023-03-03T16:34:56;12.97;;;6.20;;
16320;SDS011;8269;50.990;4.494;2023-03-03T16:40:14;8.93;;;5.53;;
16320;SDS011;8269;50.990;4.494;2023-03-03T16:42:43;8.80;;;5.60;;
16320;SDS011;8269;50.990;4.494;2023-03-03T16:50:40;9.73;;;6.27;;
16320;SDS011;8269;50.990;4.494;2023-03-03T16:53:14;8.80;;;5.77;;
16320;SDS011;8269;50.990;4.494;2023-03-03T16:58:23;10.17;;;6.50;;
16320;SDS011;8269;50.990;4.494;2023-03-03T17:03:32;10.63;;;6.93;;
16320;SDS011;8269;50.990;4.494;2023-03-03T17:06:15;13.03;;;7.37;;
16320;SDS011;8269;50.990;4.494;2023-03-03T17:11:44;8.87;;;5.97;;
16320;SDS011;8269;50.990;4.494;2023-03-03T17:14:11;10.00;;;6.40;;
16320;SDS011;8269;50.990;4.494;2023-03-03T17:29:22;13.67;;;7.70;;
16320;SDS011;8269;50.990;4.494;2023-03-03T17:36:58;10.90;;;7.47;;
16320;SDS011;8269;50.990;4.494;2023-03-03T17:39:37;13.67;;;6.13;;
16320;SDS011;8269;50.990;4.494;2023-03-03T17:42:13;12.43;;;7.47;;
16320;SDS011;8269;50.990;4.494;2023-03-03T17:44:44;10.80;;;7.13;;
16320;SDS011;8269;50.990;4.494;2023-03-03T17:47:16;11.00;;;7.17;;
16320;SDS011;8269;50.990;4.494;2023-03-03T17:54:53;12.37;;;6.47;;
16320;SDS011;8269;50.990;4.494;2023-03-03T18:07:42;12.57;;;7.77;;
16320;SDS011;8269;50.990;4.494;2023-03-03T18:18:13;18.27;;;9.57;;
16320;SDS011;8269;50.990;4.494;2023-03-03T18:25:58;14.63;;;8.20;;
16320;SDS011;8269;50.990;4.494;2023-03-03T18:28:35;13.63;;;8.10;;
16320;SDS011;8269;50.990;4.494;2023-03-03T18:31:02;14.50;;;7.57;;
16320;SDS011;8269;50.990;4.494;2023-03-03T18:38:46;17.23;;;9.77;;
16320;SDS011;8269;50.990;4.494;2023-03-03T18:41:26;15.47;;;10.63;;
16320;SDS011;8269;50.990;4.494;2023-03-03T18:43:56;16.93;;;10.40;;
16320;SDS011;8269;50.990;4.494;2023-03-03T18:52:11;14.03;;;8.87;;
16320;SDS011;8269;50.990;4.494;2023-03-03T18:57:04;14.47;;;9.77;;
16320;SDS011;8269;50.990;4.494;2023-03-03T19:04:50;12.20;;;9.07;;
16320;SDS011;8269;50.990;4.494;2023-03-03T19:10:11;12.13;;;8.57;;
16320;SDS011;8269;50.990;4.494;2023-03-03T19:12:51;11.80;;;8.10;;
16320;SDS011;8269;50.990;4.494;2023-03-03T19:18:19;11.17;;;6.87;;
16320;SDS011;8269;50.990;4.494;2023-03-03T19:20:48;13.17;;;7.60;;
16320;SDS011;8269;50.990;4.494;2023-03-03T19:23:19;9.27;;;6.13;;
16320;SDS011;8269;50.990;4.494;2023-03-03T19:26:16;8.37;;;5.80;;
16320;SDS011;8269;50.990;4.494;2023-03-03T19:28:43;7.83;;;5.77;;
16320;SDS011;8269;50.990;4.494;2023-03-03T19:31:14;8.13;;;6.03;;
16320;SDS011;8269;50.990;4.494;2023-03-03T19:33:47;10.70;;;7.43;;
16320;SDS011;8269;50.990;4.494;2023-03-03T19:46:54;9.23;;;6.13;;
16320;SDS011;8269;50.990;4.494;2023-03-03T19:49:24;9.70;;;7.07;;
16320;SDS011;8269;50.990;4.494;2023-03-03T19:52:02;12.10;;;8.70;;
16320;SDS011;8269;50.990;4.494;2023-03-03T19:56:58;14.37;;;9.47;;
16320;SDS011;8269;50.990;4.494;2023-03-03T20:07:14;14.57;;;8.77;;
16320;SDS011;8269;50.990;4.494;2023-03-03T20:15:08;9.83;;;8.17;;
16320;SDS011;8269;50.990;4.494;2023-03-03T20:17:43;10.17;;;8.17;;
16320;SDS011;8269;50.990;4.494;2023-03-03T20:23:03;11.47;;;9.90;;
16320;SDS011;8269;50.990;4.494;2023-03-03T20:25:47;8.67;;;7.80;;
16320;SDS011;8269;50.990;4.494;2023-03-03T20:30:57;11.70;;;9.50;;
16320;SDS011;8269;50.990;4.494;2023-03-03T20:33:34;11.30;;;9.67;;
16320;SDS011;8269;50.990;4.494;2023-03-03T20:52:04;11.67;;;10.47;;
16320;SDS011;8269;50.990;4.494;2023-03-03T20:54:35;10.47;;;9.47;;
16320;SDS011;8269;50.990;4.494;2023-03-03T21:00:06;11.47;;;10.37;;
16320;SDS011;8269;50.990;4.494;2023-03-03T21:05:21;13.80;;;9.93;;
16320;SDS011;8269;50.990;4.494;2023-03-03T21:10:25;13.30;;;11.77;;
16320;SDS011;8269;50.990;4.494;2023-03-03T21:12:55;13.13;;;11.47;;
16320;SDS011;8269;50.990;4.494;2023-03-03T21:17:48;14.23;;;12.53;;
16320;SDS011;8269;50.990;4.494;2023-03-03T21:20:30;14.60;;;12.33;;
16320;SDS011;8269;50.990;4.494;2023-03-03T21:22:57;13.40;;;11.93;;
16320;SDS011;8269;50.990;4.494;2023-03-03T21:28:14;16.77;;;13.30;;
16320;SDS011;8269;50.990;4.494;2023-03-03T21:36:04;15.23;;;13.17;;
16320;SDS011;8269;50.990;4.494;2023-03-03T21:38:33;15.03;;;12.53;;
16320;SDS011;8269;50.990;4.494;2023-03-03T21:41:00;14.87;;;12.60;;
16320;SDS011;8269;50.990;4.494;2023-03-03T21:43:39;15.90;;;12.73;;